sensor_id;sensor_type;location;lat;lon;timestamp;P1;durP1;ratioP1;P2;durP2;ratioP2
20118;SDS011;10220;42.716;23.306;2022-12-07T00:00:40;15.07;;;6.20;;
20118;SDS011;10220;42.716;23.306;2022-12-07T00:03:06;9.90;;;4.90;;
20118;SDS011;10220;42.716;23.306;2022-12-07T00:05:31;7.73;;;4.93;;
20118;SDS011;10220;42.716;23.306;2022-12-07T00:07:57;7.17;;;4.37;;
20118;SDS011;10220;42.716;23.306;2022-12-07T00:10:22;8.67;;;4.70;;
20118;SDS011;10220;42.716;23.306;2022-12-07T00:12:47;7.03;;;4.23;;
20118;SDS011;10220;42.716;23.306;2022-12-07T00:15:13;6.23;;;5.60;;
20118;SDS011;10220;42.716;23.306;2022-12-07T00:17:38;9.17;;;5.43;;
20118;SDS011;10220;42.716;23.306;2022-12-07T00:20:04;7.93;;;4.93;;
20118;SDS011;10220;42.716;23.306;2022-12-07T00:22:30;12.23;;;6.10;;
20118;SDS011;10220;42.716;23.306;2022-12-07T00:24:55;9.70;;;5.57;;
20118;SDS011;10220;42.716;23.306;2022-12-07T00:27:21;8.33;;;5.00;;
20118;SDS011;10220;42.716;23.306;2022-12-07T00:29:47;7.17;;;3.97;;
20118;SDS011;10220;42.716;23.306;2022-12-07T00:32:13;8.03;;;4.60;;
20118;SDS011;10220;42.716;23.306;2022-12-07T00:34:38;7.37;;;5.67;;
20118;SDS011;10220;42.716;23.306;2022-12-07T00:37:03;6.37;;;4.07;;
20118;SDS011;10220;42.716;23.306;2022-12-07T00:39:29;9.47;;;4.50;;
20118;SDS011;10220;42.716;23.306;2022-12-07T00:41:54;7.77;;;5.10;;
20118;SDS011;10220;42.716;23.306;2022-12-07T00:44:20;11.67;;;6.13;;
20118;SDS011;10220;42.716;23.306;2022-12-07T00:46:45;7.50;;;5.70;;
20118;SDS011;10220;42.716;23.306;2022-12-07T00:49:11;5.63;;;4.67;;
20118;SDS011;10220;42.716;23.306;2022-12-07T00:51:36;14.33;;;5.50;;
20118;SDS011;10220;42.716;23.306;2022-12-07T00:54:02;7.20;;;4.90;;
20118;SDS011;10220;42.716;23.306;2022-12-07T00:56:28;9.57;;;4.60;;
20118;SDS011;10220;42.716;23.306;2022-12-07T00:58:55;9.80;;;5.00;;
20118;SDS011;10220;42.716;23.306;2022-12-07T01:01:25;10.30;;;5.27;;
20118;SDS011;10220;42.716;23.306;2022-12-07T01:03:52;9.83;;;6.13;;
20118;SDS011;10220;42.716;23.306;2022-12-07T01:06:19;10.90;;;6.23;;
20118;SDS011;10220;42.716;23.306;2022-12-07T01:08:45;9.17;;;4.87;;
20118;SDS011;10220;42.716;23.306;2022-12-07T01:11:18;8.40;;;4.23;;
20118;SDS011;10220;42.716;23.306;2022-12-07T01:13:46;8.87;;;5.40;;
20118;SDS011;10220;42.716;23.306;2022-12-07T01:16:13;7.23;;;4.97;;
20118;SDS011;10220;42.716;23.306;2022-12-07T01:18:40;10.13;;;4.53;;
20118;SDS011;10220;42.716;23.306;2022-12-07T01:21:07;8.73;;;5.17;;
20118;SDS011;10220;42.716;23.306;2022-12-07T01:23:36;9.20;;;5.47;;
20118;SDS011;10220;42.716;23.306;2022-12-07T01:26:03;9.30;;;4.50;;
20118;SDS011;10220;42.716;23.306;2022-12-07T01:28:30;9.00;;;4.90;;
20118;SDS011;10220;42.716;23.306;2022-12-07T01:33:27;8.13;;;5.70;;
20118;SDS011;10220;42.716;23.306;2022-12-07T01:35:54;8.43;;;4.27;;
20118;SDS011;10220;42.716;23.306;2022-12-07T01:38:20;13.17;;;6.00;;
20118;SDS011;10220;42.716;23.306;2022-12-07T01:40:45;6.23;;;4.20;;
20118;SDS011;10220;42.716;23.306;2022-12-07T01:43:18;12.47;;;4.23;;
20118;SDS011;10220;42.716;23.306;2022-12-07T01:45:44;8.83;;;4.97;;
20118;SDS011;10220;42.716;23.306;2022-12-07T01:48:10;12.80;;;4.43;;
20118;SDS011;10220;42.716;23.306;2022-12-07T01:50:38;15.57;;;6.70;;
20118;SDS011;10220;42.716;23.306;2022-12-07T01:53:06;7.73;;;5.30;;
20118;SDS011;10220;42.716;23.306;2022-12-07T01:55:34;8.57;;;4.50;;
20118;SDS011;10220;42.716;23.306;2022-12-07T01:58:03;10.10;;;4.57;;
20118;SDS011;10220;42.716;23.306;2022-12-07T02:00:29;13.50;;;5.87;;
20118;SDS011;10220;42.716;23.306;2022-12-07T02:02:55;9.43;;;5.27;;
20118;SDS011;10220;42.716;23.306;2022-12-07T02:05:27;7.73;;;5.20;;
20118;SDS011;10220;42.716;23.306;2022-12-07T02:07:54;5.60;;;4.53;;
20118;SDS011;10220;42.716;23.306;2022-12-07T02:10:26;6.87;;;4.50;;
20118;SDS011;10220;42.716;23.306;2022-12-07T02:12:58;19.47;;;6.27;;
20118;SDS011;10220;42.716;23.306;2022-12-07T02:15:31;6.93;;;4.30;;
20118;SDS011;10220;42.716;23.306;2022-12-07T02:34:52;8.93;;;5.50;;
20118;SDS011;10220;42.716;23.306;2022-12-07T02:37:37;7.27;;;5.13;;
20118;SDS011;10220;42.716;23.306;2022-12-07T02:42:53;12.87;;;4.47;;
20118;SDS011;10220;42.716;23.306;2022-12-07T02:45:24;4.47;;;3.43;;
20118;SDS011;10220;42.716;23.306;2022-12-07T02:47:53;11.57;;;5.07;;
20118;SDS011;10220;42.716;23.306;2022-12-07T02:50:23;7.80;;;4.80;;
20118;SDS011;10220;42.716;23.306;2022-12-07T02:52:49;11.00;;;5.53;;
20118;SDS011;10220;42.716;23.306;2022-12-07T02:55:15;8.73;;;4.27;;
20118;SDS011;10220;42.716;23.306;2022-12-07T03:00:27;7.77;;;3.80;;
20118;SDS011;10220;42.716;23.306;2022-12-07T03:13:26;9.23;;;5.03;;
20118;SDS011;10220;42.716;23.306;2022-12-07T03:16:02;8.20;;;6.07;;
20118;SDS011;10220;42.716;23.306;2022-12-07T03:18:29;9.77;;;3.83;;
20118;SDS011;10220;42.716;23.306;2022-12-07T03:20:59;9.23;;;5.33;;
20118;SDS011;10220;42.716;23.306;2022-12-07T03:23:29;8.97;;;6.30;;
20118;SDS011;10220;42.716;23.306;2022-12-07T03:25:59;9.53;;;5.13;;
20118;SDS011;10220;42.716;23.306;2022-12-07T03:28:27;11.80;;;5.73;;
20118;SDS011;10220;42.716;23.306;2022-12-07T03:31:03;6.37;;;4.53;;
20118;SDS011;10220;42.716;23.306;2022-12-07T03:36:30;9.03;;;4.53;;
20118;SDS011;10220;42.716;23.306;2022-12-07T03:39:17;8.77;;;5.47;;
20118;SDS011;10220;42.716;23.306;2022-12-07T03:41:47;11.27;;;4.60;;
20118;SDS011;10220;42.716;23.306;2022-12-07T03:44:14;9.27;;;6.23;;
20118;SDS011;10220;42.716;23.306;2022-12-07T03:46:52;11.20;;;5.83;;
20118;SDS011;10220;42.716;23.306;2022-12-07T03:55:36;10.47;;;5.83;;
20118;SDS011;10220;42.716;23.306;2022-12-07T03:58:03;11.03;;;5.43;;
20118;SDS011;10220;42.716;23.306;2022-12-07T04:00:32;8.50;;;4.67;;
20118;SDS011;10220;42.716;23.306;2022-12-07T04:02:58;11.00;;;4.63;;
20118;SDS011;10220;42.716;23.306;2022-12-07T04:05:23;9.87;;;5.40;;
20118;SDS011;10220;42.716;23.306;2022-12-07T04:07:49;10.27;;;5.10;;
20118;SDS011;10220;42.716;23.306;2022-12-07T04:10:15;11.03;;;6.50;;
20118;SDS011;10220;42.716;23.306;2022-12-07T04:12:40;12.80;;;6.30;;
20118;SDS011;10220;42.716;23.306;2022-12-07T04:15:06;11.93;;;5.43;;
20118;SDS011;10220;42.716;23.306;2022-12-07T04:17:32;10.93;;;6.87;;
20118;SDS011;10220;42.716;23.306;2022-12-07T04:19:57;12.23;;;7.87;;
20118;SDS011;10220;42.716;23.306;2022-12-07T04:22:23;12.07;;;5.70;;
20118;SDS011;10220;42.716;23.306;2022-12-07T04:24:48;14.37;;;5.57;;
20118;SDS011;10220;42.716;23.306;2022-12-07T04:27:14;13.60;;;7.00;;
20118;SDS011;10220;42.716;23.306;2022-12-07T04:29:39;10.53;;;5.37;;
20118;SDS011;10220;42.716;23.306;2022-12-07T04:32:05;15.97;;;8.43;;
20118;SDS011;10220;42.716;23.306;2022-12-07T04:34:30;12.33;;;6.70;;
20118;SDS011;10220;42.716;23.306;2022-12-07T04:36:56;16.10;;;8.20;;
20118;SDS011;10220;42.716;23.306;2022-12-07T04:39:22;14.00;;;8.20;;
20118;SDS011;10220;42.716;23.306;2022-12-07T04:41:55;19.87;;;7.40;;
20118;SDS011;10220;42.716;23.306;2022-12-07T04:44:21;14.57;;;7.57;;
20118;SDS011;10220;42.716;23.306;2022-12-07T04:46:47;11.23;;;7.40;;
20118;SDS011;10220;42.716;23.306;2022-12-07T04:49:13;12.17;;;8.17;;
20118;SDS011;10220;42.716;23.306;2022-12-07T04:51:39;12.30;;;7.50;;
20118;SDS011;10220;42.716;23.306;2022-12-07T04:54:05;15.27;;;8.37;;
20118;SDS011;10220;42.716;23.306;2022-12-07T04:56:31;12.23;;;5.83;;
20118;SDS011;10220;42.716;23.306;2022-12-07T04:58:57;17.60;;;8.27;;
20118;SDS011;10220;42.716;23.306;2022-12-07T05:01:22;11.80;;;6.23;;
20118;SDS011;10220;42.716;23.306;2022-12-07T05:03:49;15.97;;;7.90;;
20118;SDS011;10220;42.716;23.306;2022-12-07T05:06:15;17.50;;;9.03;;
20118;SDS011;10220;42.716;23.306;2022-12-07T05:08:41;13.60;;;7.47;;
20118;SDS011;10220;42.716;23.306;2022-12-07T05:11:07;11.70;;;7.10;;
20118;SDS011;10220;42.716;23.306;2022-12-07T05:13:34;16.77;;;8.57;;
20118;SDS011;10220;42.716;23.306;2022-12-07T05:16:00;16.57;;;8.17;;
20118;SDS011;10220;42.716;23.306;2022-12-07T05:18:25;11.77;;;6.80;;
20118;SDS011;10220;42.716;23.306;2022-12-07T05:20:50;14.60;;;7.80;;
20118;SDS011;10220;42.716;23.306;2022-12-07T05:23:17;11.10;;;6.53;;
20118;SDS011;10220;42.716;23.306;2022-12-07T05:25:42;16.57;;;7.23;;
20118;SDS011;10220;42.716;23.306;2022-12-07T05:28:08;18.10;;;9.83;;
20118;SDS011;10220;42.716;23.306;2022-12-07T05:30:34;22.80;;;8.93;;
20118;SDS011;10220;42.716;23.306;2022-12-07T05:33:00;12.77;;;8.33;;
20118;SDS011;10220;42.716;23.306;2022-12-07T05:35:25;14.47;;;8.53;;
20118;SDS011;10220;42.716;23.306;2022-12-07T05:37:51;18.83;;;8.93;;
20118;SDS011;10220;42.716;23.306;2022-12-07T05:40:16;16.77;;;12.13;;
20118;SDS011;10220;42.716;23.306;2022-12-07T05:42:42;15.93;;;9.37;;
20118;SDS011;10220;42.716;23.306;2022-12-07T05:45:08;19.17;;;11.43;;
20118;SDS011;10220;42.716;23.306;2022-12-07T05:47:34;18.83;;;11.23;;
20118;SDS011;10220;42.716;23.306;2022-12-07T05:50:00;20.47;;;12.17;;
20118;SDS011;10220;42.716;23.306;2022-12-07T05:52:25;22.07;;;15.77;;
20118;SDS011;10220;42.716;23.306;2022-12-07T05:54:51;24.37;;;16.37;;
20118;SDS011;10220;42.716;23.306;2022-12-07T05:57:17;19.73;;;12.87;;
20118;SDS011;10220;42.716;23.306;2022-12-07T05:59:43;20.40;;;12.17;;
20118;SDS011;10220;42.716;23.306;2022-12-07T06:02:09;22.80;;;12.63;;
20118;SDS011;10220;42.716;23.306;2022-12-07T06:04:38;12.53;;;9.23;;
20118;SDS011;10220;42.716;23.306;2022-12-07T06:07:06;23.67;;;9.13;;
20118;SDS011;10220;42.716;23.306;2022-12-07T06:09:32;15.27;;;10.40;;
20118;SDS011;10220;42.716;23.306;2022-12-07T06:11:58;24.03;;;9.33;;
20118;SDS011;10220;42.716;23.306;2022-12-07T06:14:43;12.93;;;8.53;;
20118;SDS011;10220;42.716;23.306;2022-12-07T06:17:09;23.47;;;10.40;;
20118;SDS011;10220;42.716;23.306;2022-12-07T06:19:34;14.47;;;7.67;;
20118;SDS011;10220;42.716;23.306;2022-12-07T06:22:00;20.20;;;9.77;;
20118;SDS011;10220;42.716;23.306;2022-12-07T06:24:27;47.53;;;10.50;;
20118;SDS011;10220;42.716;23.306;2022-12-07T06:26:53;22.40;;;10.23;;
20118;SDS011;10220;42.716;23.306;2022-12-07T06:29:18;16.77;;;8.53;;
20118;SDS011;10220;42.716;23.306;2022-12-07T06:31:44;31.17;;;8.33;;
20118;SDS011;10220;42.716;23.306;2022-12-07T06:34:11;13.23;;;9.67;;
20118;SDS011;10220;42.716;23.306;2022-12-07T06:36:38;20.07;;;10.17;;
20118;SDS011;10220;42.716;23.306;2022-12-07T06:39:04;14.40;;;8.57;;
20118;SDS011;10220;42.716;23.306;2022-12-07T06:41:31;14.80;;;8.27;;
20118;SDS011;10220;42.716;23.306;2022-12-07T06:43:56;14.50;;;7.33;;
20118;SDS011;10220;42.716;23.306;2022-12-07T06:46:22;17.10;;;9.13;;
20118;SDS011;10220;42.716;23.306;2022-12-07T06:48:48;16.10;;;9.13;;
20118;SDS011;10220;42.716;23.306;2022-12-07T06:51:13;18.03;;;9.77;;
20118;SDS011;10220;42.716;23.306;2022-12-07T06:53:38;17.27;;;7.70;;
20118;SDS011;10220;42.716;23.306;2022-12-07T06:56:04;20.50;;;9.87;;
20118;SDS011;10220;42.716;23.306;2022-12-07T06:58:30;14.03;;;8.80;;
20118;SDS011;10220;42.716;23.306;2022-12-07T07:00:55;26.23;;;13.13;;
20118;SDS011;10220;42.716;23.306;2022-12-07T07:03:21;33.03;;;18.67;;
20118;SDS011;10220;42.716;23.306;2022-12-07T07:05:46;36.90;;;21.60;;
20118;SDS011;10220;42.716;23.306;2022-12-07T07:08:12;35.60;;;20.93;;
20118;SDS011;10220;42.716;23.306;2022-12-07T07:10:38;36.83;;;20.10;;
20118;SDS011;10220;42.716;23.306;2022-12-07T07:13:04;29.10;;;17.23;;
20118;SDS011;10220;42.716;23.306;2022-12-07T07:15:29;25.47;;;15.40;;
20118;SDS011;10220;42.716;23.306;2022-12-07T07:17:55;17.90;;;13.33;;
20118;SDS011;10220;42.716;23.306;2022-12-07T07:20:21;28.23;;;13.33;;
20118;SDS011;10220;42.716;23.306;2022-12-07T07:22:47;16.87;;;11.60;;
20118;SDS011;10220;42.716;23.306;2022-12-07T07:25:12;17.07;;;10.27;;
20118;SDS011;10220;42.716;23.306;2022-12-07T07:27:38;22.33;;;11.60;;
20118;SDS011;10220;42.716;23.306;2022-12-07T07:30:03;30.63;;;15.70;;
20118;SDS011;10220;42.716;23.306;2022-12-07T07:32:30;33.20;;;18.33;;
20118;SDS011;10220;42.716;23.306;2022-12-07T07:34:55;39.40;;;19.70;;
20118;SDS011;10220;42.716;23.306;2022-12-07T07:37:20;45.77;;;22.97;;
20118;SDS011;10220;42.716;23.306;2022-12-07T07:39:46;29.60;;;19.37;;
20118;SDS011;10220;42.716;23.306;2022-12-07T07:42:11;34.57;;;20.20;;
20118;SDS011;10220;42.716;23.306;2022-12-07T07:44:37;39.57;;;20.57;;
20118;SDS011;10220;42.716;23.306;2022-12-07T07:47:02;39.73;;;21.40;;
20118;SDS011;10220;42.716;23.306;2022-12-07T07:49:28;32.87;;;18.03;;
20118;SDS011;10220;42.716;23.306;2022-12-07T07:51:53;31.03;;;19.50;;
20118;SDS011;10220;42.716;23.306;2022-12-07T07:54:18;33.37;;;18.90;;
20118;SDS011;10220;42.716;23.306;2022-12-07T07:56:44;28.60;;;15.33;;
20118;SDS011;10220;42.716;23.306;2022-12-07T07:59:09;25.97;;;15.10;;
20118;SDS011;10220;42.716;23.306;2022-12-07T08:01:35;38.40;;;17.33;;
20118;SDS011;10220;42.716;23.306;2022-12-07T08:04:00;30.47;;;15.60;;
20118;SDS011;10220;42.716;23.306;2022-12-07T08:06:26;27.50;;;14.30;;
20118;SDS011;10220;42.716;23.306;2022-12-07T08:08:51;29.03;;;16.07;;
20118;SDS011;10220;42.716;23.306;2022-12-07T08:11:17;36.73;;;16.40;;
20118;SDS011;10220;42.716;23.306;2022-12-07T08:13:44;30.47;;;15.33;;
20118;SDS011;10220;42.716;23.306;2022-12-07T08:16:11;28.83;;;16.53;;
20118;SDS011;10220;42.716;23.306;2022-12-07T08:18:37;31.07;;;15.80;;
20118;SDS011;10220;42.716;23.306;2022-12-07T08:21:04;33.80;;;20.07;;
20118;SDS011;10220;42.716;23.306;2022-12-07T08:23:32;39.03;;;16.03;;
20118;SDS011;10220;42.716;23.306;2022-12-07T08:26:02;28.47;;;14.87;;
20118;SDS011;10220;42.716;23.306;2022-12-07T08:28:29;28.57;;;13.37;;
20118;SDS011;10220;42.716;23.306;2022-12-07T08:30:58;23.00;;;11.73;;
20118;SDS011;10220;42.716;23.306;2022-12-07T08:33:38;26.77;;;14.40;;
20118;SDS011;10220;42.716;23.306;2022-12-07T08:36:04;20.20;;;12.83;;
20118;SDS011;10220;42.716;23.306;2022-12-07T08:38:32;22.83;;;12.07;;
20118;SDS011;10220;42.716;23.306;2022-12-07T08:41:02;27.40;;;13.57;;
20118;SDS011;10220;42.716;23.306;2022-12-07T08:43:28;38.93;;;13.23;;
20118;SDS011;10220;42.716;23.306;2022-12-07T08:45:56;18.10;;;10.87;;
20118;SDS011;10220;42.716;23.306;2022-12-07T08:48:26;22.30;;;11.77;;
20118;SDS011;10220;42.716;23.306;2022-12-07T08:50:52;18.70;;;9.63;;
20118;SDS011;10220;42.716;23.306;2022-12-07T08:53:17;16.67;;;9.60;;
20118;SDS011;10220;42.716;23.306;2022-12-07T08:55:43;16.20;;;9.57;;
20118;SDS011;10220;42.716;23.306;2022-12-07T08:58:10;22.97;;;11.30;;
20118;SDS011;10220;42.716;23.306;2022-12-07T09:00:36;24.07;;;10.83;;
20118;SDS011;10220;42.716;23.306;2022-12-07T09:03:01;26.30;;;13.53;;
20118;SDS011;10220;42.716;23.306;2022-12-07T09:05:26;22.97;;;12.83;;
20118;SDS011;10220;42.716;23.306;2022-12-07T09:07:54;20.37;;;10.63;;
20118;SDS011;10220;42.716;23.306;2022-12-07T09:10:22;18.80;;;11.67;;
20118;SDS011;10220;42.716;23.306;2022-12-07T09:12:48;22.63;;;12.03;;
20118;SDS011;10220;42.716;23.306;2022-12-07T09:15:14;14.40;;;9.60;;
20118;SDS011;10220;42.716;23.306;2022-12-07T09:17:39;16.23;;;9.50;;
20118;SDS011;10220;42.716;23.306;2022-12-07T09:20:05;18.50;;;10.87;;
20118;SDS011;10220;42.716;23.306;2022-12-07T09:22:31;16.23;;;8.63;;
20118;SDS011;10220;42.716;23.306;2022-12-07T09:24:57;18.83;;;10.30;;
20118;SDS011;10220;42.716;23.306;2022-12-07T09:27:23;19.37;;;10.10;;
20118;SDS011;10220;42.716;23.306;2022-12-07T09:29:49;23.77;;;11.00;;
20118;SDS011;10220;42.716;23.306;2022-12-07T09:32:14;19.80;;;10.77;;
20118;SDS011;10220;42.716;23.306;2022-12-07T09:34:40;15.53;;;9.27;;
20118;SDS011;10220;42.716;23.306;2022-12-07T09:37:05;21.43;;;11.27;;
20118;SDS011;10220;42.716;23.306;2022-12-07T09:39:31;16.63;;;9.20;;
20118;SDS011;10220;42.716;23.306;2022-12-07T09:41:57;27.77;;;10.63;;
20118;SDS011;10220;42.716;23.306;2022-12-07T09:44:24;21.80;;;11.15;;
20118;SDS011;10220;42.716;23.306;2022-12-07T09:46:51;25.65;;;12.15;;
20118;SDS011;10220;42.716;23.306;2022-12-07T09:49:19;18.63;;;11.77;;
20118;SDS011;10220;42.716;23.306;2022-12-07T09:54:41;17.80;;;13.57;;
20118;SDS011;10220;42.716;23.306;2022-12-07T09:57:11;21.10;;;12.82;;
20118;SDS011;10220;42.716;23.306;2022-12-07T09:59:37;23.48;;;11.73;;
20118;SDS011;10220;42.716;23.306;2022-12-07T10:05:13;20.75;;;10.95;;
20118;SDS011;10220;42.716;23.306;2022-12-07T10:07:40;19.08;;;12.02;;
20118;SDS011;10220;42.716;23.306;2022-12-07T10:10:12;28.53;;;10.47;;
20118;SDS011;10220;42.716;23.306;2022-12-07T10:12:57;18.50;;;9.73;;
20118;SDS011;10220;42.716;23.306;2022-12-07T10:18:25;19.13;;;11.48;;
20118;SDS011;10220;42.716;23.306;2022-12-07T10:23:30;23.15;;;10.32;;
20118;SDS011;10220;42.716;23.306;2022-12-07T10:25:55;19.58;;;10.02;;
20118;SDS011;10220;42.716;23.306;2022-12-07T10:28:21;25.05;;;13.77;;
20118;SDS011;10220;42.716;23.306;2022-12-07T10:33:27;23.05;;;11.50;;
20118;SDS011;10220;42.716;23.306;2022-12-07T10:35:54;23.70;;;11.23;;
20118;SDS011;10220;42.716;23.306;2022-12-07T10:38:20;18.35;;;10.38;;
20118;SDS011;10220;42.716;23.306;2022-12-07T10:40:45;16.20;;;8.50;;
20118;SDS011;10220;42.716;23.306;2022-12-07T10:45:41;29.80;;;9.88;;
20118;SDS011;10220;42.716;23.306;2022-12-07T10:50:47;18.73;;;10.45;;
20118;SDS011;10220;42.716;23.306;2022-12-07T11:06:37;19.25;;;8.68;;
20118;SDS011;10220;42.716;23.306;2022-12-07T11:15:04;11.70;;;6.43;;
20118;SDS011;10220;42.716;23.306;2022-12-07T11:31:44;7.15;;;5.78;;
20118;SDS011;10220;42.716;23.306;2022-12-07T11:37:12;11.57;;;6.35;;
20118;SDS011;10220;42.716;23.306;2022-12-07T11:39:49;10.95;;;5.65;;
20118;SDS011;10220;42.716;23.306;2022-12-07T11:42:21;10.98;;;6.88;;
20118;SDS011;10220;42.716;23.306;2022-12-07T11:47:46;9.52;;;5.95;;
20118;SDS011;10220;42.716;23.306;2022-12-07T12:01:48;12.57;;;4.88;;
20118;SDS011;10220;42.716;23.306;2022-12-07T12:07:32;7.70;;;4.30;;
20118;SDS011;10220;42.716;23.306;2022-12-07T12:10:03;23.17;;;5.65;;
20118;SDS011;10220;42.716;23.306;2022-12-07T12:21:31;8.50;;;4.82;;
20118;SDS011;10220;42.716;23.306;2022-12-07T12:23:59;14.20;;;4.65;;
20118;SDS011;10220;42.716;23.306;2022-12-07T12:26:31;8.30;;;5.05;;
20118;SDS011;10220;42.716;23.306;2022-12-07T12:29:00;7.88;;;4.47;;
20118;SDS011;10220;42.716;23.306;2022-12-07T12:31:31;13.15;;;6.00;;
20118;SDS011;10220;42.716;23.306;2022-12-07T12:34:02;9.45;;;4.82;;
20118;SDS011;10220;42.716;23.306;2022-12-07T12:44:38;9.32;;;4.20;;
20118;SDS011;10220;42.716;23.306;2022-12-07T12:46:59;6.20;;;4.15;;
20118;SDS011;10220;42.716;23.306;2022-12-07T13:00:48;9.57;;;4.22;;
20118;SDS011;10220;42.716;23.306;2022-12-07T13:03:52;9.23;;;5.40;;
20118;SDS011;10220;42.716;23.306;2022-12-07T13:08:49;12.15;;;5.90;;
20118;SDS011;10220;42.716;23.306;2022-12-07T13:11:38;9.25;;;5.50;;
20118;SDS011;10220;42.716;23.306;2022-12-07T13:20:02;7.20;;;4.50;;
20118;SDS011;10220;42.716;23.306;2022-12-07T13:27:30;7.80;;;4.55;;
20118;SDS011;10220;42.716;23.306;2022-12-07T13:29:57;11.00;;;5.00;;
20118;SDS011;10220;42.716;23.306;2022-12-07T13:32:24;9.52;;;5.03;;
20118;SDS011;10220;42.716;23.306;2022-12-07T13:34:54;12.93;;;4.75;;
20118;SDS011;10220;42.716;23.306;2022-12-07T13:37:27;8.15;;;5.40;;
20118;SDS011;10220;42.716;23.306;2022-12-07T13:39:56;7.75;;;4.25;;
20118;SDS011;10220;42.716;23.306;2022-12-07T13:42:30;9.40;;;4.68;;
20118;SDS011;10220;42.716;23.306;2022-12-07T13:44:57;6.63;;;4.55;;
20118;SDS011;10220;42.716;23.306;2022-12-07T13:47:40;8.38;;;4.00;;
20118;SDS011;10220;42.716;23.306;2022-12-07T13:52:54;8.25;;;4.15;;
20118;SDS011;10220;42.716;23.306;2022-12-07T13:55:20;8.70;;;5.07;;
20118;SDS011;10220;42.716;23.306;2022-12-07T13:57:47;9.13;;;4.72;;
20118;SDS011;10220;42.716;23.306;2022-12-07T14:00:16;7.65;;;4.72;;
20118;SDS011;10220;42.716;23.306;2022-12-07T14:05:37;8.00;;;4.07;;
20118;SDS011;10220;42.716;23.306;2022-12-07T14:10:36;6.80;;;4.07;;
20118;SDS011;10220;42.716;23.306;2022-12-07T14:15:52;6.13;;;4.40;;
20118;SDS011;10220;42.716;23.306;2022-12-07T14:18:25;9.35;;;4.97;;
20118;SDS011;10220;42.716;23.306;2022-12-07T14:21:13;7.15;;;4.10;;
20118;SDS011;10220;42.716;23.306;2022-12-07T14:23:41;6.88;;;4.28;;
20118;SDS011;10220;42.716;23.306;2022-12-07T14:28:35;7.57;;;3.47;;
20118;SDS011;10220;42.716;23.306;2022-12-07T14:31:02;8.20;;;3.83;;
20118;SDS011;10220;42.716;23.306;2022-12-07T14:33:28;5.80;;;3.90;;
20118;SDS011;10220;42.716;23.306;2022-12-07T14:35:55;9.50;;;5.07;;
20118;SDS011;10220;42.716;23.306;2022-12-07T14:38:22;8.85;;;4.45;;
20118;SDS011;10220;42.716;23.306;2022-12-07T14:40:49;6.72;;;3.83;;
20118;SDS011;10220;42.716;23.306;2022-12-07T14:43:16;11.13;;;4.85;;
20118;SDS011;10220;42.716;23.306;2022-12-07T14:45:43;10.98;;;6.07;;
20118;SDS011;10220;42.716;23.306;2022-12-07T14:48:13;10.95;;;5.50;;
20118;SDS011;10220;42.716;23.306;2022-12-07T14:50:48;18.25;;;6.20;;
20118;SDS011;10220;42.716;23.306;2022-12-07T14:53:17;5.38;;;3.25;;
20118;SDS011;10220;42.716;23.306;2022-12-07T14:55:45;10.82;;;5.40;;
20118;SDS011;10220;42.716;23.306;2022-12-07T14:58:14;17.13;;;4.68;;
20118;SDS011;10220;42.716;23.306;2022-12-07T15:00:41;8.80;;;5.45;;
20118;SDS011;10220;42.716;23.306;2022-12-07T15:03:07;7.85;;;5.35;;
20118;SDS011;10220;42.716;23.306;2022-12-07T15:05:32;12.27;;;5.68;;
20118;SDS011;10220;42.716;23.306;2022-12-07T15:07:58;10.15;;;5.13;;
20118;SDS011;10220;42.716;23.306;2022-12-07T15:10:28;9.65;;;5.05;;
20118;SDS011;10220;42.716;23.306;2022-12-07T15:13:00;13.27;;;6.28;;
20118;SDS011;10220;42.716;23.306;2022-12-07T15:15:46;9.70;;;6.07;;
20118;SDS011;10220;42.716;23.306;2022-12-07T15:18:13;9.73;;;5.75;;
20118;SDS011;10220;42.716;23.306;2022-12-07T15:20:38;10.60;;;5.82;;
20118;SDS011;10220;42.716;23.306;2022-12-07T15:23:04;25.75;;;6.82;;
20118;SDS011;10220;42.716;23.306;2022-12-07T15:25:29;7.63;;;6.03;;
20118;SDS011;10220;42.716;23.306;2022-12-07T15:27:55;9.43;;;6.40;;
20118;SDS011;10220;42.716;23.306;2022-12-07T15:30:20;12.45;;;6.45;;
20118;SDS011;10220;42.716;23.306;2022-12-07T15:32:49;10.10;;;6.53;;
20118;SDS011;10220;42.716;23.306;2022-12-07T15:35:15;13.02;;;7.05;;
20118;SDS011;10220;42.716;23.306;2022-12-07T15:37:41;16.73;;;8.23;;
20118;SDS011;10220;42.716;23.306;2022-12-07T15:40:06;12.40;;;6.50;;
20118;SDS011;10220;42.716;23.306;2022-12-07T15:42:32;12.52;;;6.72;;
20118;SDS011;10220;42.716;23.306;2022-12-07T15:44:58;11.20;;;7.43;;
20118;SDS011;10220;42.716;23.306;2022-12-07T15:47:33;11.52;;;6.10;;
20118;SDS011;10220;42.716;23.306;2022-12-07T15:50:01;15.68;;;6.45;;
20118;SDS011;10220;42.716;23.306;2022-12-07T15:52:28;14.00;;;7.18;;
20118;SDS011;10220;42.716;23.306;2022-12-07T15:54:53;12.13;;;7.40;;
20118;SDS011;10220;42.716;23.306;2022-12-07T15:57:19;13.15;;;6.80;;
20118;SDS011;10220;42.716;23.306;2022-12-07T15:59:44;10.82;;;7.47;;
20118;SDS011;10220;42.716;23.306;2022-12-07T16:02:09;14.57;;;8.20;;
20118;SDS011;10220;42.716;23.306;2022-12-07T16:04:35;10.33;;;7.43;;
20118;SDS011;10220;42.716;23.306;2022-12-07T16:07:01;12.05;;;8.52;;
20118;SDS011;10220;42.716;23.306;2022-12-07T16:09:27;16.25;;;9.13;;
20118;SDS011;10220;42.716;23.306;2022-12-07T16:11:52;16.70;;;8.18;;
20118;SDS011;10220;42.716;23.306;2022-12-07T16:14:18;14.05;;;8.55;;
20118;SDS011;10220;42.716;23.306;2022-12-07T16:16:44;15.07;;;9.48;;
20118;SDS011;10220;42.716;23.306;2022-12-07T16:19:09;16.20;;;8.80;;
20118;SDS011;10220;42.716;23.306;2022-12-07T16:21:36;10.13;;;7.22;;
20118;SDS011;10220;42.716;23.306;2022-12-07T16:24:02;15.07;;;8.38;;
20118;SDS011;10220;42.716;23.306;2022-12-07T16:26:28;12.52;;;7.40;;
20118;SDS011;10220;42.716;23.306;2022-12-07T16:28:53;16.48;;;8.73;;
20118;SDS011;10220;42.716;23.306;2022-12-07T16:31:21;16.10;;;8.93;;
20118;SDS011;10220;42.716;23.306;2022-12-07T16:33:48;20.23;;;11.20;;
20118;SDS011;10220;42.716;23.306;2022-12-07T16:36:15;16.88;;;10.75;;
20118;SDS011;10220;42.716;23.306;2022-12-07T16:38:41;18.70;;;8.32;;
20118;SDS011;10220;42.716;23.306;2022-12-07T16:41:08;24.02;;;11.38;;
20118;SDS011;10220;42.716;23.306;2022-12-07T16:43:35;16.23;;;8.82;;
20118;SDS011;10220;42.716;23.306;2022-12-07T16:46:01;16.63;;;10.10;;
20118;SDS011;10220;42.716;23.306;2022-12-07T16:48:27;17.92;;;9.27;;
20118;SDS011;10220;42.716;23.306;2022-12-07T16:50:53;13.73;;;8.50;;
20118;SDS011;10220;42.716;23.306;2022-12-07T16:53:19;16.35;;;7.47;;
20118;SDS011;10220;42.716;23.306;2022-12-07T16:55:45;21.15;;;8.60;;
20118;SDS011;10220;42.716;23.306;2022-12-07T16:58:12;27.17;;;9.27;;
20118;SDS011;10220;42.716;23.306;2022-12-07T17:00:39;26.63;;;7.68;;
20118;SDS011;10220;42.716;23.306;2022-12-07T17:03:05;20.02;;;10.07;;
20118;SDS011;10220;42.716;23.306;2022-12-07T17:05:31;13.40;;;8.20;;
20118;SDS011;10220;42.716;23.306;2022-12-07T17:07:56;16.00;;;7.00;;
20118;SDS011;10220;42.716;23.306;2022-12-07T17:10:22;16.17;;;8.02;;
20118;SDS011;10220;42.716;23.306;2022-12-07T17:12:48;15.85;;;8.93;;
20118;SDS011;10220;42.716;23.306;2022-12-07T17:15:14;16.08;;;7.40;;